sensor_id;sensor_type;location;lat;lon;timestamp;pressure;altitude;pressure_sealevel;temperature;humidity
63907;BME280;50075;49.484;11.238;2024-03-06T00:01:50;97883.22;;;10.14;100.00
63907;BME280;50075;49.484;11.238;2024-03-06T00:04:16;97878.91;;;9.97;100.00
63907;BME280;50075;49.484;11.238;2024-03-06T00:06:41;97884.97;;;10.02;100.00
63907;BME280;50075;49.484;11.238;2024-03-06T00:09:06;97882.44;;;9.71;100.00
63907;BME280;50075;49.484;11.238;2024-03-06T00:11:34;97889.38;;;9.54;100.00
63907;BME280;50075;49.484;11.238;2024-03-06T00:14:01;97898.88;;;9.64;100.00
63907;BME280;50075;49.484;11.238;2024-03-06T00:16:27;97895.41;;;9.68;100.00
63907;BME280;50075;49.484;11.238;2024-03-06T00:18:52;97905.78;;;9.81;100.00
63907;BME280;50075;49.484;11.238;2024-03-06T00:21:17;97904.97;;;9.57;100.00
63907;BME280;50075;49.484;11.238;2024-03-06T00:23:43;97917.06;;;9.50;100.00
63907;BME280;50075;49.484;11.238;2024-03-06T00:26:08;97910.16;;;9.68;100.00
63907;BME280;50075;49.484;11.238;2024-03-06T00:28:35;97920.53;;;9.43;100.00
63907;BME280;50075;49.484;11.238;2024-03-06T00:31:00;97922.25;;;9.66;100.00
63907;BME280;50075;49.484;11.238;2024-03-06T00:33:25;97924.88;;;9.55;100.00
63907;BME280;50075;49.484;11.238;2024-03-06T00:35:51;97930.06;;;9.51;100.00
63907;BME280;50075;49.484;11.238;2024-03-06T00:38:16;97926.59;;;9.60;100.00
63907;BME280;50075;49.484;11.238;2024-03-06T00:40:41;97931.78;;;9.60;100.00
63907;BME280;50075;49.484;11.238;2024-03-06T00:43:07;97933.50;;;9.85;100.00
63907;BME280;50075;49.484;11.238;2024-03-06T00:45:32;97935.22;;;10.05;100.00
63907;BME280;50075;49.484;11.238;2024-03-06T00:47:57;97935.25;;;9.64;100.00
63907;BME280;50075;49.484;11.238;2024-03-06T00:50:23;97941.28;;;9.46;100.00
63907;BME280;50075;49.484;11.238;2024-03-06T00:52:48;97948.22;;;9.89;100.00
63907;BME280;50075;49.484;11.238;2024-03-06T00:55:14;97945.63;;;9.81;100.00
63907;BME280;50075;49.484;11.238;2024-03-06T00:57:39;97937.84;;;9.51;100.00
63907;BME280;50075;49.484;11.238;2024-03-06T01:00:05;97930.91;;;9.38;100.00
63907;BME280;50075;49.484;11.238;2024-03-06T01:02:39;97939.56;;;9.65;100.00
63907;BME280;50075;49.484;11.238;2024-03-06T01:05:05;97932.66;;;9.53;100.00
63907;BME280;50075;49.484;11.238;2024-03-06T01:07:32;97937.84;;;9.34;100.00
63907;BME280;50075;49.484;11.238;2024-03-06T01:09:58;97940.44;;;9.23;100.00
63907;BME280;50075;49.484;11.238;2024-03-06T01:12:24;97949.94;;;9.26;100.00
63907;BME280;50075;49.484;11.238;2024-03-06T01:14:49;97942.19;;;9.31;100.00
63907;BME280;50075;49.484;11.238;2024-03-06T01:17:15;97943.91;;;9.29;100.00
63907;BME280;50075;49.484;11.238;2024-03-06T01:19:40;97947.34;;;9.68;100.00
63907;BME280;50075;49.484;11.238;2024-03-06T01:22:05;97943.88;;;9.35;100.00
63907;BME280;50075;49.484;11.238;2024-03-06T01:24:30;97938.72;;;9.22;100.00
63907;BME280;50075;49.484;11.238;2024-03-06T01:26:56;97939.53;;;8.95;100.00
63907;BME280;50075;49.484;11.238;2024-03-06T01:29:21;97938.66;;;9.05;100.00
63907;BME280;50075;49.484;11.238;2024-03-06T01:31:46;97933.50;;;9.19;100.00
63907;BME280;50075;49.484;11.238;2024-03-06T01:34:12;97929.19;;;9.23;100.00
63907;BME280;50075;49.484;11.238;2024-03-06T01:36:37;97934.34;;;9.21;100.00
63907;BME280;50075;49.484;11.238;2024-03-06T01:39:03;97925.72;;;9.11;100.00
63907;BME280;50075;49.484;11.238;2024-03-06T01:41:28;97929.16;;;9.04;100.00
63907;BME280;50075;49.484;11.238;2024-03-06T01:43:53;97933.41;;;8.80;100.00
63907;BME280;50075;49.484;11.238;2024-03-06T01:46:19;97942.06;;;8.81;100.00
63907;BME280;50075;49.484;11.238;2024-03-06T01:48:44;97944.63;;;8.76;100.00
63907;BME280;50075;49.484;11.238;2024-03-06T01:51:11;97942.13;;;9.04;100.00
63907;BME280;50075;49.484;11.238;2024-03-06T01:53:37;97947.28;;;8.98;100.00
63907;BME280;50075;49.484;11.238;2024-03-06T01:56:04;97946.38;;;8.80;100.00
63907;BME280;50075;49.484;11.238;2024-03-06T01:58:29;97946.41;;;8.85;100.00
63907;BME280;50075;49.484;11.238;2024-03-06T02:00:56;97950.75;;;8.89;100.00
63907;BME280;50075;49.484;11.238;2024-03-06T02:03:22;97944.63;;;8.76;100.00
63907;BME280;50075;49.484;11.238;2024-03-06T02:05:49;97947.31;;;9.12;100.00
63907;BME280;50075;49.484;11.238;2024-03-06T02:08:14;97943.84;;;9.07;100.00
63907;BME280;50075;49.484;11.238;2024-03-06T02:10:40;97946.44;;;8.90;100.00
63907;BME280;50075;49.484;11.238;2024-03-06T02:13:06;97952.44;;;8.78;100.00
63907;BME280;50075;49.484;11.238;2024-03-06T02:15:31;97953.31;;;8.81;100.00
63907;BME280;50075;49.484;11.238;2024-03-06T02:17:57;97951.56;;;8.80;100.00
63907;BME280;50075;49.484;11.238;2024-03-06T02:20:24;97955.91;;;8.80;100.00
63907;BME280;50075;49.484;11.238;2024-03-06T02:22:49;97955.13;;;9.26;100.00
63907;BME280;50075;49.484;11.238;2024-03-06T02:25:15;97948.19;;;9.08;100.00
63907;BME280;50075;49.484;11.238;2024-03-06T02:27:41;97948.16;;;8.91;100.00
63907;BME280;50075;49.484;11.238;2024-03-06T02:30:06;97942.09;;;8.93;100.00
63907;BME280;50075;49.484;11.238;2024-03-06T02:32:32;97946.47;;;9.21;100.00
63907;BME280;50075;49.484;11.238;2024-03-06T02:34:57;97942.97;;;8.98;100.00
63907;BME280;50075;49.484;11.238;2024-03-06T02:37:22;97948.19;;;9.05;100.00
63907;BME280;50075;49.484;11.238;2024-03-06T02:39:49;97949.91;;;9.06;100.00
63907;BME280;50075;49.484;11.238;2024-03-06T02:42:15;97942.91;;;8.83;100.00
63907;BME280;50075;49.484;11.238;2024-03-06T02:44:40;97946.41;;;8.87;100.00
63907;BME280;50075;49.484;11.238;2024-03-06T02:47:05;97944.63;;;8.71;100.00
63907;BME280;50075;49.484;11.238;2024-03-06T02:49:30;97941.94;;;8.53;100.00
63907;BME280;50075;49.484;11.238;2024-03-06T02:51:56;97935.09;;;8.58;100.00
63907;BME280;50075;49.484;11.238;2024-03-06T02:54:22;97937.69;;;8.66;100.00
63907;BME280;50075;49.484;11.238;2024-03-06T02:56:51;97941.16;;;8.66;100.00
63907;BME280;50075;49.484;11.238;2024-03-06T02:59:17;97942.94;;;8.86;100.00
63907;BME280;50075;49.484;11.238;2024-03-06T03:01:42;97933.47;;;8.97;100.00
63907;BME280;50075;49.484;11.238;2024-03-06T03:04:10;97950.75;;;8.92;100.00
63907;BME280;50075;49.484;11.238;2024-03-06T03:06:36;97943.75;;;8.66;100.00
63907;BME280;50075;49.484;11.238;2024-03-06T03:09:01;97944.66;;;8.73;100.00
63907;BME280;50075;49.484;11.238;2024-03-06T03:11:29;97939.41;;;8.62;100.00
63907;BME280;50075;49.484;11.238;2024-03-06T03:13:54;97936.81;;;8.57;100.00
63907;BME280;50075;49.484;11.238;2024-03-06T03:16:19;97942.72;;;8.34;100.00
63907;BME280;50075;49.484;11.238;2024-03-06T03:18:45;97928.91;;;8.37;100.00
63907;BME280;50075;49.484;11.238;2024-03-06T03:21:11;97927.19;;;8.38;100.00
63907;BME280;50075;49.484;11.238;2024-03-06T03:23:38;97926.16;;;8.09;100.00
63907;BME280;50075;49.484;11.238;2024-03-06T03:26:05;97927.78;;;7.91;100.00
63907;BME280;50075;49.484;11.238;2024-03-06T03:28:30;97919.28;;;8.11;100.00
63907;BME280;50075;49.484;11.238;2024-03-06T03:30:56;97924.50;;;8.20;100.00
63907;BME280;50075;49.484;11.238;2024-03-06T03:33:22;97924.53;;;8.22;100.00
63907;BME280;50075;49.484;11.238;2024-03-06T03:35:47;97932.31;;;8.28;100.00
63907;BME280;50075;49.484;11.238;2024-03-06T03:38:13;97931.47;;;8.31;100.00
63907;BME280;50075;49.484;11.238;2024-03-06T03:40:38;97935.88;;;8.51;100.00
63907;BME280;50075;49.484;11.238;2024-03-06T03:43:04;97939.38;;;8.54;100.00
63907;BME280;50075;49.484;11.238;2024-03-06T03:45:32;97941.03;;;8.46;100.00
63907;BME280;50075;49.484;11.238;2024-03-06T03:47:59;97938.38;;;8.30;100.00
63907;BME280;50075;49.484;11.238;2024-03-06T03:50:25;97940.03;;;8.17;100.00
63907;BME280;50075;49.484;11.238;2024-03-06T03:52:50;97950.41;;;8.14;100.00
63907;BME280;50075;49.484;11.238;2024-03-06T03:55:15;97946.13;;;8.27;100.00
63907;BME280;50075;49.484;11.238;2024-03-06T03:57:41;97944.41;;;8.25;100.00
63907;BME280;50075;49.484;11.238;2024-03-06T04:00:06;97951.34;;;8.35;100.00
63907;BME280;50075;49.484;11.238;2024-03-06T04:02:36;97956.53;;;8.32;100.00
63907;BME280;50075;49.484;11.238;2024-03-06T04:05:02;97959.09;;;8.29;100.00
63907;BME280;50075;49.484;11.238;2024-03-06T04:07:27;97955.59;;;8.20;100.00
63907;BME280;50075;49.484;11.238;2024-03-06T04:09:53;97960.94;;;8.49;100.00
63907;BME280;50075;49.484;11.238;2024-03-06T04:12:18;97959.34;;;8.74;100.00
63907;BME280;50075;49.484;11.238;2024-03-06T04:14:43;97965.34;;;8.62;100.00
63907;BME280;50075;49.484;11.238;2024-03-06T04:17:09;97966.13;;;8.52;100.00
63907;BME280;50075;49.484;11.238;2024-03-06T04:19:34;97969.66;;;8.63;100.00
63907;BME280;50075;49.484;11.238;2024-03-06T04:22:00;97974.03;;;8.75;100.00
63907;BME280;50075;49.484;11.238;2024-03-06T04:24:25;97980.94;;;8.70;100.00
63907;BME280;50075;49.484;11.238;2024-03-06T04:26:51;97974.72;;;8.43;100.00
63907;BME280;50075;49.484;11.238;2024-03-06T04:29:17;97980.72;;;8.36;100.00
63907;BME280;50075;49.484;11.238;2024-03-06T04:31:42;97978.09;;;8.28;100.00
63907;BME280;50075;49.484;11.238;2024-03-06T04:34:08;97985.03;;;8.32;100.00
63907;BME280;50075;49.484;11.238;2024-03-06T04:36:33;97982.66;;;8.71;100.00
63907;BME280;50075;49.484;11.238;2024-03-06T04:38:58;97992.22;;;8.86;100.00
63907;BME280;50075;49.484;11.238;2024-03-06T04:41:24;97985.94;;;8.37;100.00
63907;BME280;50075;49.484;11.238;2024-03-06T04:43:49;97986.81;;;8.38;100.00
63907;BME280;50075;49.484;11.238;2024-03-06T04:46:18;97986.88;;;8.49;100.00
63907;BME280;50075;49.484;11.238;2024-03-06T04:48:43;97992.81;;;8.37;100.00
63907;BME280;50075;49.484;11.238;2024-03-06T04:51:09;97992.09;;;8.56;100.00
63907;BME280;50075;49.484;11.238;2024-03-06T04:53:35;97997.09;;;8.27;100.00
63907;BME280;50075;49.484;11.238;2024-03-06T04:56:00;97994.72;;;8.59;100.00
63907;BME280;50075;49.484;11.238;2024-03-06T04:58:26;97997.22;;;8.50;100.00
63907;BME280;50075;49.484;11.238;2024-03-06T05:00:51;98000.59;;;8.32;100.00
63907;BME280;50075;49.484;11.238;2024-03-06T05:03:17;97998.25;;;8.80;100.00
63907;BME280;50075;49.484;11.238;2024-03-06T05:05:42;98004.25;;;8.62;100.00
63907;BME280;50075;49.484;11.238;2024-03-06T05:08:07;98004.09;;;8.43;100.00
63907;BME280;50075;49.484;11.238;2024-03-06T05:10:33;98004.22;;;8.61;100.00
63907;BME280;50075;49.484;11.238;2024-03-06T05:12:58;98001.56;;;8.53;100.00
63907;BME280;50075;49.484;11.238;2024-03-06T05:15:24;97999.00;;;8.56;100.00
63907;BME280;50075;49.484;11.238;2024-03-06T05:17:49;98003.13;;;8.21;100.00
63907;BME280;50075;49.484;11.238;2024-03-06T05:20:14;97998.78;;;8.23;100.00
63907;BME280;50075;49.484;11.238;2024-03-06T05:22:41;98010.09;;;8.34;100.00
63907;BME280;50075;49.484;11.238;2024-03-06T05:25:07;98009.28;;;8.40;100.00
63907;BME280;50075;49.484;11.238;2024-03-06T05:27:32;98012.03;;;8.68;100.00
63907;BME280;50075;49.484;11.238;2024-03-06T05:29:57;98010.91;;;8.23;100.00
63907;BME280;50075;49.484;11.238;2024-03-06T05:32:23;98010.69;;;7.94;100.00
63907;BME280;50075;49.484;11.238;2024-03-06T05:34:48;98018.59;;;8.10;100.00
63907;BME280;50075;49.484;11.238;2024-03-06T05:37:14;98021.06;;;7.94;100.00
63907;BME280;50075;49.484;11.238;2024-03-06T05:39:39;98028.81;;;7.94;100.00
63907;BME280;50075;49.484;11.238;2024-03-06T05:42:06;98024.78;;;8.34;100.00
63907;BME280;50075;49.484;11.238;2024-03-06T05:44:32;98021.41;;;8.44;100.00
63907;BME280;50075;49.484;11.238;2024-03-06T05:47:01;98029.03;;;8.23;100.00
63907;BME280;50075;49.484;11.238;2024-03-06T05:49:27;98029.88;;;8.21;100.00
63907;BME280;50075;49.484;11.238;2024-03-06T05:51:53;98030.84;;;8.39;100.00
63907;BME280;50075;49.484;11.238;2024-03-06T05:54:22;98042.16;;;8.49;100.00
63907;BME280;50075;49.484;11.238;2024-03-06T05:56:48;98046.56;;;8.58;100.00
63907;BME280;50075;49.484;11.238;2024-03-06T05:59:15;98050.81;;;8.53;100.00
63907;BME280;50075;49.484;11.238;2024-03-06T06:01:41;98050.91;;;8.67;100.00
63907;BME280;50075;49.484;11.238;2024-03-06T06:04:08;98051.00;;;8.87;100.00
63907;BME280;50075;49.484;11.238;2024-03-06T06:06:34;98043.28;;;8.95;100.00
63907;BME280;50075;49.484;11.238;2024-03-06T06:09:00;98056.34;;;9.24;100.00
63907;BME280;50075;49.484;11.238;2024-03-06T06:11:25;98054.69;;;9.56;100.00
63907;BME280;50075;49.484;11.238;2024-03-06T06:13:50;98060.59;;;9.05;100.00
63907;BME280;50075;49.484;11.238;2024-03-06T06:16:16;98066.34;;;8.50;100.00
63907;BME280;50075;49.484;11.238;2024-03-06T06:18:41;98073.41;;;8.69;100.00
63907;BME280;50075;49.484;11.238;2024-03-06T06:21:07;98071.00;;;9.07;100.00
63907;BME280;50075;49.484;11.238;2024-03-06T06:23:33;98076.31;;;9.47;100.00
63907;BME280;50075;49.484;11.238;2024-03-06T06:25:59;98084.03;;;9.22;100.00
63907;BME280;50075;49.484;11.238;2024-03-06T06:28:24;98083.03;;;8.89;100.00
63907;BME280;50075;49.484;11.238;2024-03-06T06:30:50;98090.06;;;9.17;100.00
63907;BME280;50075;49.484;11.238;2024-03-06T06:33:20;98083.25;;;9.56;100.00
63907;BME280;50075;49.484;11.238;2024-03-06T06:35:46;98094.47;;;9.47;100.00
63907;BME280;50075;49.484;11.238;2024-03-06T06:38:12;98094.44;;;9.36;100.00
63907;BME280;50075;49.484;11.238;2024-03-06T06:40:37;98095.41;;;9.70;100.00
63907;BME280;50075;49.484;11.238;2024-03-06T06:43:02;98105.69;;;9.31;100.00
63907;BME280;50075;49.484;11.238;2024-03-06T06:45:28;98101.31;;;9.14;100.00
63907;BME280;50075;49.484;11.238;2024-03-06T06:47:53;98112.66;;;9.50;100.00
63907;BME280;50075;49.484;11.238;2024-03-06T06:50:19;98105.81;;;9.81;100.00
63907;BME280;50075;49.484;11.238;2024-03-06T06:52:48;98111.81;;;9.55;100.00
63907;BME280;50075;49.484;11.238;2024-03-06T06:55:13;98110.09;;;9.55;100.00
63907;BME280;50075;49.484;11.238;2024-03-06T06:57:39;98106.56;;;9.36;100.00
63907;BME280;50075;49.484;11.238;2024-03-06T07:00:05;98122.03;;;9.09;100.00
63907;BME280;50075;49.484;11.238;2024-03-06T07:02:37;98120.34;;;9.18;100.00
63907;BME280;50075;49.484;11.238;2024-03-06T07:05:04;98129.81;;;9.09;100.00
63907;BME280;50075;49.484;11.238;2024-03-06T07:07:30;98124.56;;;8.97;100.00
63907;BME280;50075;49.484;11.238;2024-03-06T07:09:55;98126.22;;;8.87;100.00
63907;BME280;50075;49.484;11.238;2024-03-06T07:12:20;98128.69;;;8.65;100.00
63907;BME280;50075;49.484;11.238;2024-03-06T07:14:47;98134.69;;;8.55;100.00
63907;BME280;50075;49.484;11.238;2024-03-06T07:17:12;98138.25;;;8.71;100.00
63907;BME280;50075;49.484;11.238;2024-03-06T07:19:37;98130.97;;;8.25;100.00
63907;BME280;50075;49.484;11.238;2024-03-06T07:22:04;98139.81;;;8.49;100.00
63907;BME280;50075;49.484;11.238;2024-03-06T07:24:29;98136.59;;;8.82;100.00
63907;BME280;50075;49.484;11.238;2024-03-06T07:26:55;98139.34;;;9.14;100.00
63907;BME280;50075;49.484;11.238;2024-03-06T07:29:20;98140.34;;;9.37;100.00
63907;BME280;50075;49.484;11.238;2024-03-06T07:31:45;98141.28;;;9.80;100.00
63907;BME280;50075;49.484;11.238;2024-03-06T07:34:11;98141.38;;;10.21;100.00
63907;BME280;50075;49.484;11.238;2024-03-06T07:36:37;98138.78;;;10.78;100.00
63907;BME280;50075;49.484;11.238;2024-03-06T07:39:03;98147.31;;;11.27;100.00
63907;BME280;50075;49.484;11.238;2024-03-06T07:41:28;98142.78;;;11.68;100.00
63907;BME280;50075;49.484;11.238;2024-03-06T07:43:53;98145.91;;;12.30;100.00
63907;BME280;50075;49.484;11.238;2024-03-06T07:46:19;98147.66;;;12.26;100.00
63907;BME280;50075;49.484;11.238;2024-03-06T07:48:44;98156.50;;;13.07;100.00
63907;BME280;50075;49.484;11.238;2024-03-06T07:51:10;98156.22;;;12.47;100.00
63907;BME280;50075;49.484;11.238;2024-03-06T07:53:35;98148.59;;;13.13;100.00
63907;BME280;50075;49.484;11.238;2024-03-06T07:56:02;98148.53;;;13.21;100.00
63907;BME280;50075;49.484;11.238;2024-03-06T07:58:28;98149.00;;;13.56;100.00
63907;BME280;50075;49.484;11.238;2024-03-06T08:00:53;98145.34;;;15.30;100.00
63907;BME280;50075;49.484;11.238;2024-03-06T08:03:21;98145.34;;;14.82;100.00
63907;BME280;50075;49.484;11.238;2024-03-06T08:05:50;98153.78;;;14.48;100.00
63907;BME280;50075;49.484;11.238;2024-03-06T08:08:16;98157.28;;;16.25;100.00
63907;BME280;50075;49.484;11.238;2024-03-06T08:10:41;98164.13;;;15.93;100.00
63907;BME280;50075;49.484;11.238;2024-03-06T08:13:06;98144.19;;;14.97;100.00
63907;BME280;50075;49.484;11.238;2024-03-06T08:15:32;98144.06;;;14.55;100.00
63907;BME280;50075;49.484;11.238;2024-03-06T08:17:57;98131.72;;;13.40;100.00
63907;BME280;50075;49.484;11.238;2024-03-06T08:20:22;98131.34;;;12.99;100.00
63907;BME280;50075;49.484;11.238;2024-03-06T08:22:48;98136.56;;;11.90;100.00
63907;BME280;50075;49.484;11.238;2024-03-06T08:25:14;98134.94;;;11.73;100.00
63907;BME280;50075;49.484;11.238;2024-03-06T08:27:41;98148.06;;;11.53;100.00
63907;BME280;50075;49.484;11.238;2024-03-06T08:30:08;98141.13;;;11.53;100.00
63907;BME280;50075;49.484;11.238;2024-03-06T08:32:34;98149.66;;;11.87;100.00
63907;BME280;50075;49.484;11.238;2024-03-06T08:35:11;98154.59;;;12.27;100.00
63907;BME280;50075;49.484;11.238;2024-03-06T08:37:40;98149.00;;;12.74;100.00
63907;BME280;50075;49.484;11.238;2024-03-06T08:40:09;98154.09;;;11.64;100.00
63907;BME280;50075;49.484;11.238;2024-03-06T08:42:43;98153.41;;;11.26;100.00
63907;BME280;50075;49.484;11.238;2024-03-06T08:45:10;98157.75;;;11.18;100.00
63907;BME280;50075;49.484;11.238;2024-03-06T08:47:35;98149.97;;;11.02;100.00
63907;BME280;50075;49.484;11.238;2024-03-06T08:50:01;98158.59;;;11.25;100.00
63907;BME280;50075;49.484;11.238;2024-03-06T08:52:27;98165.59;;;11.02;100.00
63907;BME280;50075;49.484;11.238;2024-03-06T08:54:53;98164.69;;;11.24;100.00
63907;BME280;50075;49.484;11.238;2024-03-06T08:57:18;98167.38;;;10.88;100.00
63907;BME280;50075;49.484;11.238;2024-03-06T08:59:46;98169.09;;;10.90;100.00
63907;BME280;50075;49.484;11.238;2024-03-06T09:02:18;98177.63;;;11.45;100.00
63907;BME280;50075;49.484;11.238;2024-03-06T09:04:45;98174.00;;;11.79;100.00
63907;BME280;50075;49.484;11.238;2024-03-06T09:07:11;98169.81;;;11.39;100.00
63907;BME280;50075;49.484;11.238;2024-03-06T09:09:37;98167.22;;;11.44;100.00
63907;BME280;50075;49.484;11.238;2024-03-06T09:12:06;98169.72;;;11.63;100.00
63907;BME280;50075;49.484;11.238;2024-03-06T09:14:33;98168.53;;;12.28;100.00
63907;BME280;50075;49.484;11.238;2024-03-06T09:16:58;98174.59;;;12.30;100.00
63907;BME280;50075;49.484;11.238;2024-03-06T09:19:24;98169.34;;;12.33;100.00
63907;BME280;50075;49.484;11.238;2024-03-06T09:21:49;98173.50;;;12.56;100.00
63907;BME280;50075;49.484;11.238;2024-03-06T09:24:14;98170.50;;;11.85;100.00
63907;BME280;50075;49.484;11.238;2024-03-06T09:26:40;98174.88;;;11.78;100.00
63907;BME280;50075;49.484;11.238;2024-03-06T09:29:05;98169.44;;;12.17;100.00
63907;BME280;50075;49.484;11.238;2024-03-06T09:31:30;98174.00;;;11.81;100.00
63907;BME280;50075;49.484;11.238;2024-03-06T09:33:56;98175.66;;;11.96;100.00
63907;BME280;50075;49.484;11.238;2024-03-06T09:36:21;98177.94;;;12.44;100.00
63907;BME280;50075;49.484;11.238;2024-03-06T09:38:46;98179.16;;;11.89;100.00
63907;BME280;50075;49.484;11.238;2024-03-06T09:41:12;98179.88;;;12.20;100.00
63907;BME280;50075;49.484;11.238;2024-03-06T09:43:38;98183.28;;;12.32;100.00
63907;BME280;50075;49.484;11.238;2024-03-06T09:46:06;98181.03;;;11.58;100.00
63907;BME280;50075;49.484;11.238;2024-03-06T09:48:33;98184.59;;;11.29;100.00
63907;BME280;50075;49.484;11.238;2024-03-06T09:51:01;98187.28;;;11.15;100.00
63907;BME280;50075;49.484;11.238;2024-03-06T09:53:29;98189.72;;;11.57;100.00
63907;BME280;50075;49.484;11.238;2024-03-06T09:55:56;98190.66;;;11.45;100.00
63907;BME280;50075;49.484;11.238;2024-03-06T09:58:23;98188.97;;;11.26;100.00
63907;BME280;50075;49.484;11.238;2024-03-06T10:00:49;98185.53;;;11.17;100.00
63907;BME280;50075;49.484;11.238;2024-03-06T10:03:15;98192.56;;;10.50;100.00
63907;BME280;50075;49.484;11.238;2024-03-06T10:05:40;98195.06;;;10.01;100.00
63907;BME280;50075;49.484;11.238;2024-03-06T10:08:08;98188.16;;;10.16;100.00
63907;BME280;50075;49.484;11.238;2024-03-06T10:10:35;98188.13;;;10.00;100.00
63907;BME280;50075;49.484;11.238;2024-03-06T10:13:00;98191.56;;;9.93;100.00
63907;BME280;50075;49.484;11.238;2024-03-06T10:15:26;98186.41;;;10.10;100.00
63907;BME280;50075;49.484;11.238;2024-03-06T10:18:10;98183.81;;;10.43;100.00
63907;BME280;50075;49.484;11.238;2024-03-06T10:20:36;98192.50;;;10.42;100.00
63907;BME280;50075;49.484;11.238;2024-03-06T10:23:02;98195.09;;;10.31;100.00
63907;BME280;50075;49.484;11.238;2024-03-06T10:25:27;98193.34;;;10.28;100.00
63907;BME280;50075;49.484;11.238;2024-03-06T10:28:09;98196.84;;;10.27;100.00
63907;BME280;50075;49.484;11.238;2024-03-06T10:30:35;98194.28;;;10.76;100.00
63907;BME280;50075;49.484;11.238;2024-03-06T10:33:04;98196.56;;;11.87;100.00
63907;BME280;50075;49.484;11.238;2024-03-06T10:35:33;98188.44;;;12.33;100.00
63907;BME280;50075;49.484;11.238;2024-03-06T10:38:02;98206.84;;;12.16;100.00
63907;BME280;50075;49.484;11.238;2024-03-06T10:40:30;98201.47;;;12.43;100.00
63907;BME280;50075;49.484;11.238;2024-03-06T10:42:57;98197.84;;;12.58;100.00
63907;BME280;50075;49.484;11.238;2024-03-06T10:45:32;98208.28;;;12.58;100.00
63907;BME280;50075;49.484;11.238;2024-03-06T10:48:00;98207.47;;;12.51;100.00
63907;BME280;50075;49.484;11.238;2024-03-06T10:50:27;98209.16;;;12.58;100.00
63907;BME280;50075;49.484;11.238;2024-03-06T10:52:56;98204.88;;;12.49;100.00
63907;BME280;50075;49.484;11.238;2024-03-06T10:55:23;98212.69;;;12.51;100.00
63907;BME280;50075;49.484;11.238;2024-03-06T10:57:52;98213.34;;;12.76;100.00
63907;BME280;50075;49.484;11.238;2024-03-06T11:00:19;98208.31;;;12.56;100.00
63907;BME280;50075;49.484;11.238;2024-03-06T11:02:46;98220.03;;;11.82;100.00
63907;BME280;50075;49.484;11.238;2024-03-06T11:05:14;98212.03;;;12.18;100.00
63907;BME280;50075;49.484;11.238;2024-03-06T11:07:39;98213.91;;;11.91;100.00
63907;BME280;50075;49.484;11.238;2024-03-06T11:10:05;98219.19;;;11.74;100.00
63907;BME280;50075;49.484;11.238;2024-03-06T11:12:37;98219.13;;;11.83;100.00
63907;BME280;50075;49.484;11.238;2024-03-06T11:15:24;98228.63;;;11.96;100.00
63907;BME280;50075;49.484;11.238;2024-03-06T11:17:50;98225.25;;;11.79;100.00
63907;BME280;50075;49.484;11.238;2024-03-06T11:20:17;98221.91;;;11.38;100.00
63907;BME280;50075;49.484;11.238;2024-03-06T11:28:11;98217.59;;;11.33;100.00
63907;BME280;50075;49.484;11.238;2024-03-06T11:30:48;98222.75;;;11.52;100.00
63907;BME280;50075;49.484;11.238;2024-03-06T11:33:20;98219.97;;;11.91;100.00
63907;BME280;50075;49.484;11.238;2024-03-06T11:36:23;98223.56;;;11.64;100.00
63907;BME280;50075;49.484;11.238;2024-03-06T11:38:56;98225.31;;;11.65;100.00
63907;BME280;50075;49.484;11.238;2024-03-06T11:41:22;98223.66;;;11.39;100.00
63907;BME280;50075;49.484;11.238;2024-03-06T11:43:48;98223.59;;;11.51;100.00
63907;BME280;50075;49.484;11.238;2024-03-06T11:46:16;98226.28;;;11.37;100.00
63907;BME280;50075;49.484;11.238;2024-03-06T11:48:42;98225.28;;;11.72;100.00
63907;BME280;50075;49.484;11.238;2024-03-06T11:51:09;98217.25;;;12.16;100.00
63907;BME280;50075;49.484;11.238;2024-03-06T11:53:34;98212.72;;;12.49;100.00
63907;BME280;50075;49.484;11.238;2024-03-06T11:56:07;98211.53;;;12.85;100.00
63907;BME280;50075;49.484;11.238;2024-03-06T11:58:33;98214.84;;;13.04;100.00
63907;BME280;50075;49.484;11.238;2024-03-06T12:00:59;98210.34;;;13.17;100.00
63907;BME280;50075;49.484;11.238;2024-03-06T12:03:25;98211.22;;;13.21;100.00
63907;BME280;50075;49.484;11.238;2024-03-06T12:05:51;98215.00;;;13.72;100.00
63907;BME280;50075;49.484;11.238;2024-03-06T12:08:17;98211.56;;;13.66;100.00
63907;BME280;50075;49.484;11.238;2024-03-06T12:10:42;98219.63;;;13.45;100.00
63907;BME280;50075;49.484;11.238;2024-03-06T12:13:08;98214.41;;;13.49;100.00
63907;BME280;50075;49.484;11.238;2024-03-06T12:15:33;98205.78;;;13.36;100.00
63907;BME280;50075;49.484;11.238;2024-03-06T12:18:00;98212.13;;;13.17;100.00
63907;BME280;50075;49.484;11.238;2024-03-06T12:20:26;98212.53;;;13.59;100.00
63907;BME280;50075;49.484;11.238;2024-03-06T12:22:52;98210.13;;;13.37;100.00
63907;BME280;50075;49.484;11.238;2024-03-06T12:25:22;98208.66;;;13.11;100.00
63907;BME280;50075;49.484;11.238;2024-03-06T12:27:49;98215.53;;;13.23;100.00
63907;BME280;50075;49.484;11.238;2024-03-06T12:30:18;98205.88;;;13.32;100.00
63907;BME280;50075;49.484;11.238;2024-03-06T12:32:44;98202.34;;;13.34;98.16
63907;BME280;50075;49.484;11.238;2024-03-06T12:35:10;98203.47;;;13.10;99.98
63907;BME280;50075;49.484;11.238;2024-03-06T12:37:35;98203.97;;;13.43;97.67
63907;BME280;50075;49.484;11.238;2024-03-06T12:40:02;98202.66;;;13.85;97.66
63907;BME280;50075;49.484;11.238;2024-03-06T12:42:29;98204.22;;;13.97;91.37
63907;BME280;50075;49.484;11.238;2024-03-06T12:44:55;98207.91;;;13.82;91.55
63907;BME280;50075;49.484;11.238;2024-03-06T12:47:20;98206.16;;;13.82;90.77